Time;durP1;ratioP1;P1;durP2;ratioP2;P2;SDS_P1;SDS_P2;PMS_P1;PMS_P2;Temp;Humidity;BMP_temperature;BMP_pressure;BME280_temperature;BME280_humidity;BME280_pressure;Samples;Min_cycle;Max_cycle;Signal;HPM_P1;HPM_P2
2022/12/27 00:02:22;;;;;;;2.88;1.70;;;;;;;7.09;100.00;100338.66;5078373;28;20491;-81
2022/12/27 00:04:48;;;;;;;2.70;2.05;;;;;;;7.12;100.00;100342.63;5077884;28;20095;-81
2022/12/27 00:07:14;;;;;;;2.25;1.30;;;;;;;7.09;100.00;100330.16;5077821;28;20449;-82
2022/12/27 00:09:39;;;;;;;2.70;1.60;;;;;;;7.12;100.00;100331.28;5059848;28;20035;-81
2022/12/27 00:12:05;;;;;;;2.10;1.38;;;;;;;7.11;100.00;100349.56;5078094;28;20021;-81
2022/12/27 00:14:30;;;;;;;2.70;1.42;;;;;;;7.13;100.00;100366.16;5077680;28;20096;-81
2022/12/27 00:16:56;;;;;;;2.78;1.40;;;;;;;7.10;100.00;100377.19;5043017;28;20028;-80
2022/12/27 00:19:21;;;;;;;2.85;1.50;;;;;;;7.10;100.00;100376.41;5077765;28;20035;-82
2022/12/27 00:21:47;;;;;;;1.95;1.70;;;;;;;7.12;100.00;100379.56;5077459;28;20373;-81
2022/12/27 00:24:12;;;;;;;4.25;2.08;;;;;;;7.11;100.00;100375.16;5077443;28;20055;-81
2022/12/27 00:26:38;;;;;;;2.72;1.50;;;;;;;7.12;100.00;100387.31;5077446;28;20534;-81
2022/12/27 00:29:03;;;;;;;2.03;1.65;;;;;;;7.12;100.00;100390.16;5059320;28;20024;-82
2022/12/27 00:31:30;;;;;;;5.32;2.08;;;;;;;7.07;100.00;100383.03;5077194;28;20489;-82
2022/12/27 00:33:57;;;;;;;5.43;1.88;;;;;;;7.06;100.00;100389.97;5059409;28;20025;-80
2022/12/27 00:36:25;;;;;;;2.10;1.60;;;;;;;7.03;100.00;100403.03;5042623;28;20025;-82
2022/12/27 00:38:51;;;;;;;2.90;1.75;;;;;;;7.01;100.00;100410.47;5076991;28;20485;-81
2022/12/27 00:41:17;;;;;;;1.80;1.40;;;;;;;7.01;100.00;100402.72;5042654;28;20430;-82
2022/12/27 00:43:42;;;;;;;1.85;1.00;;;;;;;6.97;100.00;100421.16;5059213;28;20504;-81
2022/12/27 00:46:08;;;;;;;1.92;1.45;;;;;;;6.88;100.00;100424.72;5059107;28;20428;-81
2022/12/27 00:48:34;;;;;;;2.40;1.30;;;;;;;6.84;100.00;100431.81;5059197;28;20416;-82
2022/12/27 00:51:02;;;;;;;2.83;1.52;;;;;;;6.81;100.00;100424.22;5058805;28;20062;-81
2022/12/27 00:53:28;;;;;;;2.20;1.50;;;;;;;6.82;100.00;100422.97;5058704;28;20036;-82
2022/12/27 00:55:54;;;;;;;1.98;1.77;;;;;;;6.76;100.00;100427.66;5042428;28;20046;-81
2022/12/27 00:58:19;;;;;;;4.95;2.15;;;;;;;6.71;100.00;100429.06;5059555;28;20047;-81
2022/12/27 01:00:45;;;;;;;3.08;1.70;;;;;;;6.61;100.00;100439.56;5059115;28;20078;-82
2022/12/27 01:03:10;;;;;;;2.97;1.40;;;;;;;6.60;100.00;100435.13;5058610;28;20082;-83
2022/12/27 01:05:36;;;;;;;3.35;1.38;;;;;;;6.56;100.00;100439.38;5058618;28;20028;-82
2022/12/27 01:08:03;;;;;;;2.17;1.30;;;;;;;6.52;100.00;100441.53;5076512;28;20043;-82
2022/12/27 01:10:29;;;;;;;1.52;1.02;;;;;;;6.44;100.00;100441.00;5076033;28;20037;-82
2022/12/27 01:12:54;;;;;;;1.45;1.33;;;;;;;6.38;100.00;100442.88;5075828;28;20048;-81
2022/12/27 01:15:20;;;;;;;4.18;1.80;;;;;;;6.35;100.00;100449.44;5058516;28;20032;-81
2022/12/27 01:17:45;;;;;;;2.17;1.60;;;;;;;6.32;100.00;100447.53;5058644;28;20449;-81
2022/12/27 01:20:11;;;;;;;3.75;1.63;;;;;;;6.29;100.00;100445.56;5058815;28;20107;-83
2022/12/27 01:22:36;;;;;;;4.65;1.63;;;;;;;6.21;100.00;100461.28;5076157;28;20465;-82
2022/12/27 01:25:01;;;;;;;3.40;1.73;;;;;;;6.17;100.00;100474.78;5076255;28;20024;-83
2022/12/27 01:27:27;;;;;;;2.55;2.03;;;;;;;6.10;100.00;100467.31;5058827;28;20032;-82
2022/12/27 01:29:52;;;;;;;2.58;1.98;;;;;;;5.95;100.00;100473.94;5076056;28;20025;-82
2022/12/27 01:32:18;;;;;;;3.22;2.13;;;;;;;5.81;100.00;100478.03;5041535;28;20033;-82
2022/12/27 01:34:43;;;;;;;3.58;2.45;;;;;;;5.73;100.00;100486.00;5058331;28;20020;-82
2022/12/27 01:37:09;;;;;;;3.28;1.83;;;;;;;5.72;100.00;100490.09;5075825;28;20020;-82
2022/12/27 01:39:34;;;;;;;2.22;1.70;;;;;;;5.65;100.00;100498.81;5076217;28;20031;-81
2022/12/27 01:44:50;;;;;;;5.90;2.33;;;;;;;5.51;100.00;100501.31;5076306;28;20090;-81
2022/12/27 01:47:18;;;;;;;;;;;;;;;5.50;100.00;100508.25;5041618;28;20035;-82
2022/12/27 01:50:11;;;;;;;4.43;1.80;;;;;;;5.36;100.00;100490.44;5075639;28;19951;-81
2022/12/27 01:52:47;;;;;;;3.58;1.60;;;;;;;5.46;100.00;100508.34;5065610;28;20048;-81
2022/12/27 01:55:28;;;;;;;4.43;1.75;;;;;;;5.44;100.00;100502.34;5058124;28;20063;-82
2022/12/27 01:57:57;;;;;;;3.28;1.65;;;;;;;5.47;100.00;100494.97;5075480;28;20024;-81
2022/12/27 02:00:23;;;;;;;4.45;1.85;;;;;;;5.52;100.00;100502.91;5057764;28;20071;-81
2022/12/27 02:02:48;;;;;;;3.13;1.50;;;;;;;5.59;100.00;100502.69;5075327;28;20469;-81
2022/12/27 02:05:16;;;;;;;3.08;2.00;;;;;;;5.56;100.00;100510.03;5075555;28;20048;-82
2022/12/27 02:08:08;;;;;;;2.15;1.65;;;;;;;5.57;100.00;100519.34;5076513;28;20027;-82
2022/12/27 02:10:33;;;;;;;3.53;2.28;;;;;;;5.54;100.00;100532.41;5047949;28;20477;-82
2022/12/27 02:13:00;;;;;;;4.55;2.53;;;;;;;5.47;100.00;100541.09;5055983;28;20130;-82
2022/12/27 02:15:25;;;;;;;3.47;2.25;;;;;;;5.49;100.00;100544.28;5058487;28;20024;-82
2022/12/27 02:17:51;;;;;;;3.08;1.58;;;;;;;5.50;100.00;100550.75;5093954;28;20062;-82
2022/12/27 02:20:20;;;;;;;1.85;1.50;;;;;;;5.43;100.00;100553.78;5076894;28;20024;-81
2022/12/27 02:26:13;;;;;;;1.60;1.50;;;;;;;5.41;100.00;100571.25;5077483;28;20040;-82
2022/12/27 02:28:54;;;;;;;7.18;2.55;;;;;;;5.28;100.00;100576.09;5065181;28;20036;-81
2022/12/27 02:31:40;;;;;;;4.97;2.28;;;;;;;5.17;100.00;100584.91;5074810;28;20112;-81
2022/12/27 02:34:14;;;;;;;4.93;2.50;;;;;;;5.00;100.00;100591.88;5057253;28;20020;-82
2022/12/27 02:36:41;;;;;;;6.05;1.77;;;;;;;4.96;100.00;100611.00;5057178;28;20029;-81
2022/12/27 02:39:08;;;;;;;6.15;1.95;;;;;;;4.85;100.00;100621.84;5056805;28;20017;-82
2022/12/27 02:53:11;;;;;;;3.63;1.80;;;;;;;4.44;100.00;100647.97;5060228;28;20539;-81
2022/12/27 02:59:19;;;;;;;2.45;1.35;;;;;;;4.38;100.00;100658.22;5074652;28;20035;-81
2022/12/27 03:05:08;;;;;;;4.78;1.30;;;;;;;4.34;100.00;100649.81;5058888;28;20043;-81
2022/12/27 03:07:39;;;;;;;4.18;1.55;;;;;;;4.33;100.00;100653.88;5074309;28;20063;-82
2022/12/27 03:16:12;;;;;;;5.47;1.95;;;;;;;4.28;100.00;100667.75;5058563;28;20133;-83
2022/12/27 03:19:00;;;;;;;3.15;1.33;;;;;;;4.29;100.00;100680.66;5074063;28;20033;-81
2022/12/27 03:27:17;;;;;;;3.72;1.60;;;;;;;4.20;100.00;100694.63;5058616;28;20444;-82
2022/12/27 03:35:26;;;;;;;4.28;1.95;;;;;;;4.27;100.00;100709.38;5058459;28;20071;-82
2022/12/27 03:38:03;;;;;;;4.70;2.08;;;;;;;4.26;100.00;100705.00;5073813;28;20063;-81
2022/12/27 03:40:33;;;;;;;3.25;2.00;;;;;;;4.30;100.00;100719.03;5056767;28;20024;-81
2022/12/27 03:43:09;;;;;;;7.60;2.30;;;;;;;4.29;100.00;100723.09;5073739;28;20029;-80
2022/12/27 03:49:14;;;;;;;5.55;1.98;;;;;;;4.24;100.00;100732.91;5073818;28;20082;-81
2022/12/27 03:51:55;;;;;;;5.22;1.70;;;;;;;4.13;100.00;100737.19;5001557;28;20412;-82
2022/12/27 03:54:27;;;;;;;5.55;1.60;;;;;;;4.04;100.00;100746.28;5056056;28;20035;-82
2022/12/27 03:56:55;;;;;;;4.35;1.80;;;;;;;3.94;100.00;100744.47;5055876;28;20031;-82
2022/12/27 03:59:21;;;;;;;3.88;1.15;;;;;;;3.84;100.00;100754.75;5055459;28;20021;-82
2022/12/27 04:01:46;;;;;;;6.60;1.48;;;;;;;3.74;100.00;100763.44;5055798;28;20038;-82
2022/12/27 04:04:11;;;;;;;7.43;2.42;;;;;;;3.55;100.00;100762.22;5073206;28;20031;-82
2022/12/27 04:06:37;;;;;;;3.92;0.98;;;;;;;3.55;100.00;100768.66;5055208;28;20032;-81
2022/12/27 04:36:22;;;;;;;6.40;2.53;;;;;;;2.74;100.00;100813.22;5073351;28;20098;-81
2022/12/27 04:38:48;;;;;;;6.22;1.70;;;;;;;2.68;100.00;100822.63;5073485;28;20024;-81
2022/12/27 04:55:21;;;;;;;11.15;1.88;;;;;;;2.49;100.00;100868.44;5061641;28;20036;-81
2022/12/27 04:57:47;;;;;;;6.80;2.42;;;;;;;2.46;100.00;100866.44;5076487;28;20063;-81
2022/12/27 05:02:58;;;;;;;4.40;1.70;;;;;;;2.44;100.00;100861.22;5076381;28;20083;-81
2022/12/27 05:05:24;;;;;;;22.10;2.00;;;;;;;2.42;100.00;100857.25;5058361;28;20145;-81
2022/12/27 05:16:01;;;;;;;6.90;1.92;;;;;;;2.22;100.00;100876.84;5076240;28;20101;-81
2022/12/27 05:18:27;;;;;;;6.72;1.50;;;;;;;2.15;100.00;100899.47;5076065;28;20028;-81
2022/12/27 05:20:52;;;;;;;10.23;1.85;;;;;;;2.08;100.00;100899.56;5076332;28;20029;-82
2022/12/27 05:26:02;;;;;;;4.05;1.60;;;;;;;2.05;100.00;100908.84;5076229;28;20043;-81
2022/12/27 05:28:27;;;;;;;5.32;1.73;;;;;;;2.00;100.00;100906.47;5075776;28;20473;-81
2022/12/27 05:30:52;;;;;;;12.65;1.98;;;;;;;1.98;100.00;100912.56;5076244;28;20035;-81
2022/12/27 05:33:18;;;;;;;6.57;1.55;;;;;;;1.97;100.00;100924.22;5076223;28;20017;-80
2022/12/27 05:35:43;;;;;;;13.77;2.20;;;;;;;1.96;100.00;100926.25;5057824;28;20370;-82
2022/12/27 05:38:09;;;;;;;5.47;1.90;;;;;;;1.91;100.00;100930.31;5041180;28;20024;-83
2022/12/27 05:40:34;;;;;;;5.38;1.55;;;;;;;1.92;100.00;100931.13;5041143;28;20082;-80
2022/12/27 05:43:01;;;;;;;10.90;2.25;;;;;;;1.91;100.00;100930.31;5075637;28;20024;-81
2022/12/27 05:45:28;;;;;;;6.55;2.05;;;;;;;1.92;100.00;100937.56;5057861;28;20020;-81
2022/12/27 05:47:53;;;;;;;5.90;1.77;;;;;;;1.96;100.00;100937.53;5075426;28;20461;-81
2022/12/27 05:50:19;;;;;;;12.65;2.03;;;;;;;2.05;100.00;100939.84;5057714;28;20021;-81
2022/12/27 05:52:44;;;;;;;14.00;2.45;;;;;;;2.16;100.00;100932.88;5075407;28;20037;-82
2022/12/27 05:55:10;;;;;;;7.82;1.50;;;;;;;2.28;100.00;100945.63;5075709;28;20028;-80
2022/12/27 05:57:35;;;;;;;5.38;1.35;;;;;;;2.44;100.00;100940.19;5023755;28;20025;-82
2022/12/27 06:00:01;;;;;;;8.20;1.40;;;;;;;2.51;100.00;100945.75;5075342;28;20031;-82
2022/12/27 06:02:27;;;;;;;5.13;2.22;;;;;;;2.62;100.00;100954.09;5075727;28;20024;-82
2022/12/27 06:04:52;;;;;;;7.40;1.65;;;;;;;2.69;100.00;100959.63;5075027;28;20050;-82
2022/12/27 06:07:18;;;;;;;9.48;1.77;;;;;;;2.70;100.00;100949.94;5075401;28;20020;-82
2022/12/27 06:09:43;;;;;;;5.90;1.50;;;;;;;2.73;100.00;100949.13;5040354;28;20127;-81
2022/12/27 06:12:08;;;;;;;4.05;1.23;;;;;;;2.67;100.00;100945.16;5075091;28;20028;-82
2022/12/27 06:14:34;;;;;;;6.43;1.75;;;;;;;2.67;100.00;100960.06;5075031;28;20013;-82
2022/12/27 06:16:59;;;;;;;6.00;1.45;;;;;;;2.64;100.00;100948.81;5075220;28;20028;-82
2022/12/27 06:19:25;;;;;;;9.57;1.75;;;;;;;2.60;100.00;100962.16;5075041;28;20021;-82
2022/12/27 06:21:50;;;;;;;7.50;1.35;;;;;;;2.49;100.00;100962.28;5074963;28;20020;-82
2022/12/27 06:24:15;;;;;;;4.88;1.50;;;;;;;2.39;100.00;100966.03;5074653;28;20032;-81
2022/12/27 06:26:41;;;;;;;7.63;1.88;;;;;;;2.36;100.00;100958.44;5074749;28;20020;-82
2022/12/27 06:29:10;;;;;;;10.93;2.08;;;;;;;2.24;100.00;100956.94;5041017;28;20073;-81
2022/12/27 06:31:35;;;;;;;7.95;1.88;;;;;;;2.22;100.00;100970.66;5075926;28;20025;-82
2022/12/27 06:34:00;;;;;;;8.00;2.40;;;;;;;2.25;100.00;100967.00;5088908;28;20017;-81
2022/12/27 06:36:28;;;;;;;8.45;2.13;;;;;;;2.28;100.00;100968.19;5086761;28;20027;-81
2022/12/27 06:38:53;;;;;;;15.32;2.20;;;;;;;2.26;100.00;100959.34;5062581;28;20099;-82
2022/12/27 06:41:19;;;;;;;7.35;2.05;;;;;;;2.24;100.00;100970.25;5077429;28;20539;-81
2022/12/27 06:43:45;;;;;;;10.35;2.33;;;;;;;2.25;100.00;100975.47;5041904;28;20021;-81
2022/12/27 06:46:13;;;;;;;6.43;2.72;;;;;;;2.20;100.00;100978.72;5076096;28;20024;-82
2022/12/27 06:48:38;;;;;;;4.65;1.70;;;;;;;2.12;100.00;100970.78;5039725;28;20043;-81
2022/12/27 06:51:05;;;;;;;6.55;1.50;;;;;;;2.12;100.00;100988.50;5056754;28;20032;-81
2022/12/27 06:53:31;;;;;;;6.30;1.55;;;;;;;2.11;100.00;101000.19;5056235;28;20090;-80
2022/12/27 06:55:56;;;;;;;9.23;2.03;;;;;;;2.12;100.00;101008.22;5056396;28;20024;-83
2022/12/27 06:58:21;;;;;;;10.65;1.90;;;;;;;2.13;100.00;101003.41;5074740;28;20429;-81
2022/12/27 07:00:47;;;;;;;8.35;2.38;;;;;;;2.10;100.00;101009.84;5074475;28;20028;-80
2022/12/27 07:03:12;;;;;;;11.38;2.35;;;;;;;2.06;100.00;101007.06;5074287;28;20385;-81
2022/12/27 07:05:38;;;;;;;13.32;1.95;;;;;;;2.01;100.00;101018.78;5074182;28;20056;-81
2022/12/27 07:08:04;;;;;;;6.03;1.52;;;;;;;2.02;100.00;101019.59;5074409;28;20103;-83
2022/12/27 07:10:29;;;;;;;11.25;2.42;;;;;;;1.96;100.00;101019.25;5073496;28;20523;-82
2022/12/27 07:12:55;;;;;;;11.13;2.45;;;;;;;1.91;100.00;101017.69;5074123;28;20120;-82
2022/12/27 07:15:21;;;;;;;6.72;2.13;;;;;;;1.89;100.00;101022.16;5074465;28;20485;-82
2022/12/27 07:17:46;;;;;;;11.13;2.75;;;;;;;1.90;100.00;101032.97;5074101;28;20111;-81
2022/12/27 07:20:11;;;;;;;11.00;2.83;;;;;;;1.92;100.00;101041.03;5074092;28;20044;-82
2022/12/27 07:22:37;;;;;;;6.50;2.65;;;;;;;1.88;100.00;101046.69;5056297;28;20033;-81
2022/12/27 07:25:03;;;;;;;7.00;1.83;;;;;;;1.91;100.00;101043.03;5074608;28;20064;-81
2022/12/27 07:27:28;;;;;;;6.82;3.10;;;;;;;1.98;100.00;101053.47;5039897;28;20058;-81
2022/12/27 07:29:54;;;;;;;4.25;1.80;;;;;;;1.97;100.00;101054.66;5056215;28;20181;-81
2022/12/27 07:32:19;;;;;;;7.07;1.98;;;;;;;1.97;100.00;101057.50;5073907;28;20028;-81
2022/12/27 07:34:44;;;;;;;9.43;2.42;;;;;;;1.95;100.00;101062.72;5073645;28;20030;-81
2022/12/27 07:37:10;;;;;;;7.78;1.88;;;;;;;1.86;100.00;101059.59;5056341;28;20111;-81
2022/12/27 07:39:35;;;;;;;5.72;2.53;;;;;;;1.94;100.00;101074.44;5055792;28;20016;-82
2022/12/27 07:42:01;;;;;;;6.97;2.95;;;;;;;1.99;100.00;101076.81;5074037;28;20108;-82
2022/12/27 07:44:26;;;;;;;7.88;1.83;;;;;;;2.00;100.00;101087.66;5056652;28;20047;-80
2022/12/27 07:46:51;;;;;;;4.80;1.73;;;;;;;2.03;100.00;101089.66;5039348;28;20142;-82
2022/12/27 07:49:17;;;;;;;7.18;2.58;;;;;;;2.06;100.00;101088.81;5074029;28;20036;-81
2022/12/27 07:51:42;;;;;;;6.03;2.35;;;;;;;2.06;100.00;101091.63;5055385;28;20025;-81
2022/12/27 07:54:07;;;;;;;4.55;1.70;;;;;;;2.13;100.00;101090.78;5074762;28;20024;-81
2022/12/27 07:56:33;;;;;;;6.60;1.60;;;;;;;2.16;100.00;101087.91;5057824;28;20161;-80
2022/12/27 07:59:00;;;;;;;7.13;1.85;;;;;;;2.17;100.00;101081.06;5075564;28;20044;-81
2022/12/27 08:01:28;;;;;;;4.50;2.25;;;;;;;2.20;100.00;101085.06;5056748;28;20100;-81
2022/12/27 08:03:53;;;;;;;4.38;1.90;;;;;;;2.24;100.00;101077.41;5039751;28;20035;-81
2022/12/27 08:06:32;;;;;;;9.48;2.22;;;;;;;2.26;100.00;101080.59;5055920;28;20024;-82
2022/12/27 08:09:02;;;;;;;11.40;3.08;;;;;;;2.33;100.00;101089.00;5055730;28;20085;-81
2022/12/27 08:11:28;;;;;;;8.45;2.03;;;;;;;2.33;100.00;101080.53;5073850;28;20473;-81
2022/12/27 08:13:54;;;;;;;6.25;2.15;;;;;;;2.39;100.00;101092.94;5056018;28;20028;-82
2022/12/27 08:16:22;;;;;;;6.95;2.50;;;;;;;2.46;100.00;101087.25;5038659;28;20017;-81
2022/12/27 08:18:48;;;;;;;7.15;2.60;;;;;;;2.51;100.00;101091.63;5055635;28;20035;-81
2022/12/27 08:21:14;;;;;;;8.90;2.65;;;;;;;2.53;100.00;101090.00;5075698;28;20542;-80
2022/12/27 08:23:39;;;;;;;6.30;1.90;;;;;;;2.58;100.00;101081.09;5059262;28;20054;-82
2022/12/27 08:26:06;;;;;;;5.60;2.20;;;;;;;2.62;100.00;101086.69;5059830;28;20123;-82
2022/12/27 08:28:31;;;;;;;3.08;1.65;;;;;;;2.69;100.00;101090.22;5077629;28;20048;-81
2022/12/27 08:30:58;;;;;;;3.92;2.03;;;;;;;2.72;100.00;101088.59;5076785;28;20496;-81
2022/12/27 08:33:23;;;;;;;5.32;2.10;;;;;;;2.78;100.00;101084.09;5076821;28;20031;-81
2022/12/27 08:35:49;;;;;;;8.63;1.88;;;;;;;2.87;100.00;101083.59;5059055;28;20025;-81
2022/12/27 08:38:14;;;;;;;6.72;1.80;;;;;;;2.84;100.00;101090.06;5077493;28;20031;-80
2022/12/27 08:40:41;;;;;;;5.30;1.70;;;;;;;2.88;100.00;101085.19;5076908;28;20017;-82
2022/12/27 08:43:07;;;;;;;4.60;1.67;;;;;;;3.02;100.00;101093.47;5059308;28;20024;-80
2022/12/27 08:45:32;;;;;;;2.30;1.65;;;;;;;3.02;100.00;101088.66;5042393;28;20017;-82
2022/12/27 08:47:59;;;;;;;4.38;1.75;;;;;;;3.11;100.00;101108.69;5076824;28;20033;-81
2022/12/27 08:50:25;;;;;;;3.42;1.60;;;;;;;3.13;100.00;101109.06;5058833;28;20035;-80
2022/12/27 08:52:50;;;;;;;8.23;2.30;;;;;;;3.15;100.00;101106.63;5058830;28;20120;-80
2022/12/27 08:55:16;;;;;;;4.97;2.15;;;;;;;3.12;100.00;101101.81;5077187;28;20063;-82
2022/12/27 08:57:41;;;;;;;5.57;2.10;;;;;;;3.15;100.00;101108.63;5076764;28;20107;-81
2022/12/27 09:00:07;;;;;;;5.38;1.55;;;;;;;3.19;100.00;101120.69;5059072;28;20034;-81
2022/12/27 09:02:33;;;;;;;6.57;1.65;;;;;;;3.21;100.00;101104.94;5058692;28;20078;-80
2022/12/27 09:04:58;;;;;;;4.60;1.38;;;;;;;3.30;100.00;101100.78;5058912;28;20024;-82
2022/12/27 09:07:23;;;;;;;7.97;2.05;;;;;;;3.33;100.00;101112.03;5076818;28;20031;-82
2022/12/27 09:09:49;;;;;;;5.63;1.77;;;;;;;3.43;100.00;101119.56;5042272;28;20066;-81
2022/12/27 09:12:14;;;;;;;6.95;2.00;;;;;;;3.46;100.00;101117.94;5059077;28;20060;-81
2022/12/27 09:14:39;;;;;;;4.82;2.22;;;;;;;3.44;100.00;101121.16;5077126;28;20024;-82
2022/12/27 09:17:07;;;;;;;5.15;1.55;;;;;;;3.46;100.00;101121.56;5076673;28;20036;-82
2022/12/27 09:19:33;;;;;;;4.28;1.48;;;;;;;3.51;100.00;101120.28;5059450;28;20028;-81
2022/12/27 09:21:58;;;;;;;8.13;3.17;;;;;;;3.50;100.00;101118.69;5077226;28;20023;-81
2022/12/27 09:24:24;;;;;;;7.07;2.00;;;;;;;3.51;100.00;101106.97;5042719;28;20396;-81
2022/12/27 09:26:49;;;;;;;4.65;1.70;;;;;;;3.54;100.00;101116.59;5076415;28;20029;-82
2022/12/27 09:29:14;;;;;;;4.95;2.00;;;;;;;3.49;100.00;101106.56;5076670;28;20024;-80
2022/12/27 09:31:40;;;;;;;5.25;1.58;;;;;;;3.63;100.00;101109.19;5076925;28;20030;-82
2022/12/27 09:34:05;;;;;;;6.03;1.90;;;;;;;3.74;100.00;101113.88;5077094;28;20038;-82
2022/12/27 09:36:30;;;;;;;6.78;1.70;;;;;;;3.57;100.00;101079.84;5076344;28;20020;-80
2022/12/27 09:38:57;;;;;;;8.77;1.75;;;;;;;3.68;100.00;101109.94;5076568;28;20116;-82
2022/12/27 09:41:47;;;;;;;4.97;1.77;;;;;;;3.71;100.00;101115.56;5058128;28;20025;-81
2022/12/27 09:44:38;;;;;;;3.42;1.77;;;;;;;3.65;100.00;101103.13;5076125;28;20087;-82
2022/12/27 09:47:11;;;;;;;8.25;2.35;;;;;;;3.75;100.00;101104.19;5058572;28;20020;-82
2022/12/27 09:49:56;;;;;;;5.60;2.00;;;;;;;3.75;100.00;101092.88;5058873;28;20044;-82
2022/12/27 09:52:28;;;;;;;10.48;2.22;;;;;;;3.79;100.00;101087.97;5076838;28;20040;-81
2022/12/27 09:54:59;;;;;;;6.72;1.73;;;;;;;3.78;100.00;101075.88;5076568;28;20025;-82
2022/12/27 09:57:36;;;;;;;4.72;1.80;;;;;;;3.89;100.00;101095.53;5058974;28;20025;-80
2022/12/27 10:00:05;;;;;;;8.25;1.80;;;;;;;3.90;100.00;101102.78;5058467;28;20103;-81
2022/12/27 10:02:32;;;;;;;5.63;1.88;;;;;;;3.88;100.00;101110.88;5076442;28;20028;-81
2022/12/27 10:04:58;;;;;;;5.32;2.00;;;;;;;3.97;100.00;101125.31;5057852;28;20056;-81
2022/12/27 10:07:37;;;;;;;4.15;1.52;;;;;;;3.99;100.00;101120.81;5058342;28;20067;-80
2022/12/27 10:10:29;;;;;;;6.95;1.77;;;;;;;4.03;100.00;101117.91;5077511;28;20024;-80
2022/12/27 10:13:03;;;;;;;5.97;1.67;;;;;;;4.17;100.00;101114.84;5057760;28;20020;-82
2022/12/27 10:15:42;;;;;;;2.95;1.70;;;;;;;4.20;100.00;101122.50;5075822;28;20017;-81
2022/12/27 10:18:37;;;;;;;5.53;2.10;;;;;;;4.23;100.00;101126.47;5041999;28;20039;-81
2022/12/27 10:21:21;;;;;;;5.35;2.33;;;;;;;4.29;100.00;101127.59;5077980;28;20028;-82
2022/12/27 10:23:59;;;;;;;4.63;1.38;;;;;;;4.23;100.00;101123.66;5076930;28;20027;-82
2022/12/27 10:26:25;;;;;;;4.70;1.60;;;;;;;4.25;100.00;101121.22;5047794;28;20029;-81
2022/12/27 10:29:03;;;;;;;5.43;1.40;;;;;;;4.26;100.00;101114.34;5054995;28;20017;-81
2022/12/27 10:31:29;;;;;;;3.72;1.52;;;;;;;4.29;100.00;101107.81;5076775;28;20492;-81
2022/12/27 10:33:55;;;;;;;4.85;1.73;;;;;;;4.25;100.00;101107.06;5076286;28;20025;-81
2022/12/27 10:36:26;;;;;;;4.68;1.83;;;;;;;4.29;100.00;101114.25;5042271;28;20028;-80
2022/12/27 10:38:53;;;;;;;3.63;1.50;;;;;;;4.24;100.00;101119.59;5058334;28;20028;-82
2022/12/27 10:41:31;;;;;;;8.27;2.30;;;;;;;4.26;100.00;101122.81;5057953;28;20097;-81
2022/12/27 10:43:56;;;;;;;5.97;2.55;;;;;;;4.30;100.00;101120.72;5075918;28;20028;-81
2022/12/27 10:46:29;;;;;;;3.22;1.65;;;;;;;4.35;100.00;101121.03;5075247;28;20373;-80
2022/12/27 10:48:59;;;;;;;2.85;1.33;;;;;;;4.39;100.00;101116.09;5057663;28;20027;-81
2022/12/27 10:51:34;;;;;;;6.40;1.50;;;;;;;4.37;100.00;101121.38;5080515;28;20032;-81
2022/12/27 10:54:05;;;;;;;5.38;1.55;;;;;;;4.37;100.00;101112.91;5094165;28;20036;-80
2022/12/27 10:56:33;;;;;;;7.40;1.40;;;;;;;4.43;100.00;101122.50;5074007;28;20033;-82
2022/12/27 10:59:17;;;;;;;3.17;1.55;;;;;;;4.50;100.00;101130.06;5068214;28;20678;-81
2022/12/27 11:01:44;;;;;;;4.75;2.38;;;;;;;4.47;100.00;101120.41;5086213;28;20024;-81
2022/12/27 11:04:17;;;;;;;3.53;1.70;;;;;;;4.58;100.00;101106.06;5083124;28;20355;-81
2022/12/27 11:06:44;;;;;;;6.30;1.92;;;;;;;4.78;100.00;101112.56;5082364;28;20021;-80
2022/12/27 11:09:32;;;;;;;9.30;1.58;;;;;;;4.69;100.00;101103.84;5067775;28;20033;-82
2022/12/27 11:12:10;;;;;;;1.65;1.35;;;;;;;4.66;100.00;101107.53;5084552;28;20047;-81
2022/12/27 11:14:36;;;;;;;5.65;2.05;;;;;;;4.69;100.00;101106.69;5081116;28;20385;-81
2022/12/27 11:17:07;;;;;;;8.85;2.20;;;;;;;4.64;100.00;101101.50;5081180;28;20454;-81
2022/12/27 11:19:32;;;;;;;4.80;1.67;;;;;;;4.59;100.00;101113.34;5080466;28;20096;-81
2022/12/27 11:22:03;;;;;;;2.85;1.27;;;;;;;4.60;100.00;101109.28;5079346;28;20473;-80
2022/12/27 11:24:29;;;;;;;3.53;1.60;;;;;;;4.58;100.00;101122.25;5061207;28;20119;-81
2022/12/27 11:26:57;;;;;;;7.50;2.55;;;;;;;4.52;100.00;101113.44;5078441;28;20043;-81
2022/12/27 11:29:25;;;;;;;11.50;2.03;;;;;;;4.57;100.00;101129.13;5077502;28;20466;-81
2022/12/27 11:31:51;;;;;;;4.50;1.58;;;;;;;4.55;100.00;101126.75;5059247;28;20103;-81
2022/12/27 11:34:17;;;;;;;3.90;1.42;;;;;;;4.53;100.00;101134.06;5077358;28;20048;-81
2022/12/27 11:36:45;;;;;;;4.30;1.30;;;;;;;4.57;100.00;101137.63;5059780;28;20028;-81
2022/12/27 11:39:40;;;;;;;4.13;1.60;;;;;;;4.59;100.00;101135.97;5058691;28;20033;-81
2022/12/27 11:42:44;;;;;;;5.15;1.92;;;;;;;4.53;100.00;101134.06;5041362;28;20063;-80
2022/12/27 11:45:13;;;;;;;6.43;1.30;;;;;;;4.57;100.00;101138.44;5014178;28;20029;-80
2022/12/27 11:47:49;;;;;;;2.88;1.65;;;;;;;4.64;100.00;101129.03;5064221;28;20036;-80
2022/12/27 11:50:43;;;;;;;7.57;2.78;;;;;;;4.74;100.00;101145.00;5058216;28;20377;-81
2022/12/27 11:53:21;;;;;;;9.23;1.70;;;;;;;4.72;100.00;101136.94;5068123;28;20046;-80
2022/12/27 11:56:07;;;;;;;10.48;1.73;;;;;;;4.71;100.00;101137.41;5075159;28;20056;-82
2022/12/27 11:58:33;;;;;;;9.23;1.83;;;;;;;4.59;100.00;101135.19;5074765;28;20032;-81
2022/12/27 12:01:22;;;;;;;3.47;1.45;;;;;;;4.53;100.00;101134.88;5074739;28;20043;-83
2022/12/27 12:04:16;;;;;;;2.80;1.48;;;;;;;4.59;100.00;101140.84;5074720;28;20032;-81
2022/12/27 12:07:15;;;;;;;9.73;1.90;;;;;;;4.70;100.00;101135.78;5074932;28;20060;-81
2022/12/27 12:10:14;;;;;;;3.08;1.40;;;;;;;4.78;100.00;101134.41;5075721;28;20029;-80
2022/12/27 12:12:48;;;;;;;8.98;1.98;;;;;;;4.78;100.00;101117.44;5056524;28;20036;-82
2022/12/27 12:15:19;;;;;;;9.13;1.80;;;;;;;4.86;100.00;101113.22;5074836;28;20060;-81
2022/12/27 12:18:06;;;;;;;3.47;1.50;;;;;;;4.99;100.00;101110.56;5074780;28;20033;-81
2022/12/27 12:20:42;;;;;;;7.70;2.00;;;;;;;4.97;100.00;101108.16;5074588;28;20032;-82
2022/12/27 12:23:24;;;;;;;9.55;1.65;;;;;;;5.01;100.00;101122.22;5056246;28;20428;-82
2022/12/27 12:25:50;;;;;;;5.85;1.90;;;;;;;5.11;100.00;101119.19;5056587;28;20024;-82
2022/12/27 12:28:43;;;;;;;6.18;1.98;;;;;;;5.21;100.00;101129.50;5074133;28;20075;-82
2022/12/27 12:31:46;;;;;;;6.57;1.85;;;;;;;5.37;100.00;101114.63;5074781;28;20122;-81
2022/12/27 12:34:23;;;;;;;4.32;1.40;;;;;;;5.40;100.00;101132.81;5073983;28;20381;-81
2022/12/27 12:37:07;;;;;;;4.30;1.50;;;;;;;5.34;100.00;101121.97;5073784;28;20082;-81
2022/12/27 12:39:57;;;;;;;5.97;1.60;;;;;;;5.27;100.00;101129.81;5055738;28;20393;-80
2022/12/27 12:42:46;;;;;;;5.22;1.92;;;;;;;5.28;100.00;101115.22;5055796;28;20064;-80
2022/12/27 12:45:42;;;;;;;3.33;2.08;;;;;;;5.28;100.00;101114.41;5075277;28;20086;-80
2022/12/27 12:48:19;;;;;;;8.80;2.85;;;;;;;5.32;100.00;101115.13;5073914;28;20497;-80
2022/12/27 12:50:56;;;;;;;8.50;1.77;;;;;;;5.37;100.00;101118.25;5076377;28;20024;-81
2022/12/27 12:53:28;;;;;;;4.70;1.55;;;;;;;5.24;100.00;101120.16;5073152;28;20040;-81
2022/12/27 12:56:11;;;;;;;2.67;1.80;;;;;;;5.22;100.00;101122.63;5073511;28;20122;-82
2022/12/27 12:58:52;;;;;;;5.85;2.38;;;;;;;5.27;100.00;101139.09;5073498;28;20032;-81
2022/12/27 13:01:42;;;;;;;8.13;3.03;;;;;;;5.29;100.00;101128.16;5073460;28;20112;-82
2022/12/27 13:04:17;;;;;;;4.20;1.80;;;;;;;5.35;100.00;101145.44;5055639;28;20036;-81
2022/12/27 13:06:55;;;;;;;3.08;1.60;;;;;;;5.34;100.00;101132.50;5073263;28;20032;-81
2022/12/27 13:09:32;;;;;;;6.00;1.77;;;;;;;5.34;100.00;101135.34;5059055;28;20362;-81
2022/12/27 13:12:23;;;;;;;3.58;1.80;;;;;;;5.19;100.00;101140.50;5079366;28;20028;-82
2022/12/27 13:15:07;;;;;;;3.67;1.50;;;;;;;5.10;100.00;101153.66;5058817;28;20392;-81
2022/12/27 13:17:41;;;;;;;5.53;1.95;;;;;;;4.97;100.00;101149.84;5078040;28;20028;-82
2022/12/27 13:20:30;;;;;;;8.40;1.65;;;;;;;4.95;100.00;101147.44;5059257;28;20028;-81